sensor_id;sensor_type;location;lat;lon;timestamp;P1;durP1;ratioP1;P2;durP2;ratioP2
33814;SDS011;20121;51.910;8.406;2023-06-19T00:01:09;3.13;;;2.87;;
33814;SDS011;20121;51.910;8.406;2023-06-19T00:03:34;3.13;;;2.83;;
33814;SDS011;20121;51.910;8.406;2023-06-19T00:06:00;3.73;;;3.10;;
33814;SDS011;20121;51.910;8.406;2023-06-19T00:08:25;4.50;;;3.37;;
33814;SDS011;20121;51.910;8.406;2023-06-19T00:10:51;4.53;;;3.80;;
33814;SDS011;20121;51.910;8.406;2023-06-19T00:13:17;3.83;;;3.43;;
33814;SDS011;20121;51.910;8.406;2023-06-19T00:15:43;4.40;;;2.92;;
33814;SDS011;20121;51.910;8.406;2023-06-19T00:18:09;3.40;;;3.07;;
33814;SDS011;20121;51.910;8.406;2023-06-19T00:20:35;5.70;;;3.90;;
33814;SDS011;20121;51.910;8.406;2023-06-19T00:23:01;7.00;;;3.70;;
33814;SDS011;20121;51.910;8.406;2023-06-19T00:25:27;3.60;;;3.30;;
33814;SDS011;20121;51.910;8.406;2023-06-19T00:27:52;3.20;;;2.87;;
33814;SDS011;20121;51.910;8.406;2023-06-19T00:30:18;2.90;;;2.27;;
33814;SDS011;20121;51.910;8.406;2023-06-19T00:32:44;2.67;;;2.30;;
33814;SDS011;20121;51.910;8.406;2023-06-19T00:35:13;4.65;;;3.47;;
33814;SDS011;20121;51.910;8.406;2023-06-19T00:37:40;3.22;;;2.88;;
33814;SDS011;20121;51.910;8.406;2023-06-19T00:40:10;4.60;;;3.45;;
33814;SDS011;20121;51.910;8.406;2023-06-19T00:42:49;3.83;;;3.33;;
33814;SDS011;20121;51.910;8.406;2023-06-19T00:45:15;6.87;;;3.20;;
33814;SDS011;20121;51.910;8.406;2023-06-19T00:47:40;3.47;;;3.10;;
33814;SDS011;20121;51.910;8.406;2023-06-19T00:50:06;3.93;;;3.37;;
33814;SDS011;20121;51.910;8.406;2023-06-19T00:52:32;4.13;;;3.10;;
33814;SDS011;20121;51.910;8.406;2023-06-19T00:54:58;4.07;;;3.30;;
33814;SDS011;20121;51.910;8.406;2023-06-19T00:57:24;4.88;;;3.15;;
33814;SDS011;20121;51.910;8.406;2023-06-19T00:59:50;2.90;;;2.70;;
33814;SDS011;20121;51.910;8.406;2023-06-19T01:02:18;3.63;;;3.00;;
33814;SDS011;20121;51.910;8.406;2023-06-19T01:04:48;4.57;;;3.60;;
33814;SDS011;20121;51.910;8.406;2023-06-19T01:07:16;3.20;;;2.90;;
33814;SDS011;20121;51.910;8.406;2023-06-19T01:09:51;3.53;;;2.90;;
33814;SDS011;20121;51.910;8.406;2023-06-19T01:12:20;3.35;;;3.05;;
33814;SDS011;20121;51.910;8.406;2023-06-19T01:14:54;3.00;;;2.80;;
33814;SDS011;20121;51.910;8.406;2023-06-19T01:17:24;4.95;;;3.92;;
33814;SDS011;20121;51.910;8.406;2023-06-19T01:19:54;3.38;;;3.08;;
33814;SDS011;20121;51.910;8.406;2023-06-19T01:22:30;2.78;;;2.58;;
33814;SDS011;20121;51.910;8.406;2023-06-19T01:24:56;4.30;;;3.67;;
33814;SDS011;20121;51.910;8.406;2023-06-19T01:27:25;3.85;;;3.33;;
33814;SDS011;20121;51.910;8.406;2023-06-19T01:29:54;3.80;;;3.20;;
33814;SDS011;20121;51.910;8.406;2023-06-19T01:32:39;6.13;;;4.07;;
33814;SDS011;20121;51.910;8.406;2023-06-19T01:35:31;4.30;;;3.60;;
33814;SDS011;20121;51.910;8.406;2023-06-19T01:37:59;4.50;;;3.35;;
33814;SDS011;20121;51.910;8.406;2023-06-19T01:40:26;3.28;;;2.97;;
33814;SDS011;20121;51.910;8.406;2023-06-19T01:42:56;3.70;;;3.33;;
33814;SDS011;20121;51.910;8.406;2023-06-19T01:45:27;3.85;;;3.50;;
33814;SDS011;20121;51.910;8.406;2023-06-19T01:47:54;3.33;;;3.03;;
33814;SDS011;20121;51.910;8.406;2023-06-19T01:50:20;4.47;;;3.67;;
33814;SDS011;20121;51.910;8.406;2023-06-19T01:52:47;3.72;;;3.28;;
33814;SDS011;20121;51.910;8.406;2023-06-19T01:55:13;4.90;;;3.80;;
33814;SDS011;20121;51.910;8.406;2023-06-19T01:57:39;4.10;;;3.67;;
33814;SDS011;20121;51.910;8.406;2023-06-19T02:00:05;6.10;;;3.37;;
33814;SDS011;20121;51.910;8.406;2023-06-19T02:02:33;3.55;;;3.25;;
33814;SDS011;20121;51.910;8.406;2023-06-19T02:04:59;3.45;;;3.10;;
33814;SDS011;20121;51.910;8.406;2023-06-19T02:07:24;3.27;;;2.97;;
33814;SDS011;20121;51.910;8.406;2023-06-19T02:09:51;4.97;;;3.93;;
33814;SDS011;20121;51.910;8.406;2023-06-19T02:12:16;5.22;;;3.30;;
33814;SDS011;20121;51.910;8.406;2023-06-19T02:14:42;4.00;;;3.47;;
33814;SDS011;20121;51.910;8.406;2023-06-19T02:17:08;4.00;;;3.43;;
33814;SDS011;20121;51.910;8.406;2023-06-19T02:19:33;4.67;;;3.00;;
33814;SDS011;20121;51.910;8.406;2023-06-19T02:21:59;5.70;;;4.40;;
33814;SDS011;20121;51.910;8.406;2023-06-19T02:24:25;3.10;;;2.60;;
33814;SDS011;20121;51.910;8.406;2023-06-19T02:26:50;4.33;;;3.40;;
33814;SDS011;20121;51.910;8.406;2023-06-19T02:29:16;4.10;;;3.70;;
33814;SDS011;20121;51.910;8.406;2023-06-19T02:31:42;5.07;;;3.07;;
33814;SDS011;20121;51.910;8.406;2023-06-19T02:34:09;4.75;;;3.30;;
33814;SDS011;20121;51.910;8.406;2023-06-19T02:36:34;3.40;;;3.10;;
33814;SDS011;20121;51.910;8.406;2023-06-19T02:39:01;3.97;;;3.17;;
33814;SDS011;20121;51.910;8.406;2023-06-19T02:41:29;4.90;;;3.58;;
33814;SDS011;20121;51.910;8.406;2023-06-19T02:43:54;5.17;;;3.30;;
33814;SDS011;20121;51.910;8.406;2023-06-19T02:46:20;5.33;;;3.47;;
33814;SDS011;20121;51.910;8.406;2023-06-19T02:48:45;5.80;;;4.10;;
33814;SDS011;20121;51.910;8.406;2023-06-19T02:51:11;6.23;;;3.70;;
33814;SDS011;20121;51.910;8.406;2023-06-19T02:53:37;4.87;;;2.97;;
33814;SDS011;20121;51.910;8.406;2023-06-19T02:56:02;5.20;;;3.40;;
33814;SDS011;20121;51.910;8.406;2023-06-19T02:58:28;3.50;;;2.97;;
33814;SDS011;20121;51.910;8.406;2023-06-19T03:00:54;3.47;;;3.13;;
33814;SDS011;20121;51.910;8.406;2023-06-19T03:03:19;6.80;;;3.07;;
33814;SDS011;20121;51.910;8.406;2023-06-19T03:05:45;3.20;;;2.70;;
33814;SDS011;20121;51.910;8.406;2023-06-19T03:08:11;5.67;;;4.13;;
33814;SDS011;20121;51.910;8.406;2023-06-19T03:10:37;4.03;;;3.00;;
33814;SDS011;20121;51.910;8.406;2023-06-19T03:13:02;4.00;;;3.27;;
33814;SDS011;20121;51.910;8.406;2023-06-19T03:15:28;3.93;;;3.17;;
33814;SDS011;20121;51.910;8.406;2023-06-19T03:17:53;3.07;;;2.77;;
33814;SDS011;20121;51.910;8.406;2023-06-19T03:20:19;3.60;;;3.20;;
33814;SDS011;20121;51.910;8.406;2023-06-19T03:22:45;4.18;;;3.45;;
33814;SDS011;20121;51.910;8.406;2023-06-19T03:25:12;3.72;;;3.30;;
33814;SDS011;20121;51.910;8.406;2023-06-19T03:27:37;4.23;;;3.40;;
33814;SDS011;20121;51.910;8.406;2023-06-19T03:30:03;4.50;;;3.17;;
33814;SDS011;20121;51.910;8.406;2023-06-19T03:32:31;5.22;;;3.50;;
33814;SDS011;20121;51.910;8.406;2023-06-19T03:34:58;4.68;;;3.83;;
33814;SDS011;20121;51.910;8.406;2023-06-19T03:37:24;4.30;;;3.90;;
33814;SDS011;20121;51.910;8.406;2023-06-19T03:39:49;4.77;;;3.53;;
33814;SDS011;20121;51.910;8.406;2023-06-19T03:42:15;3.73;;;3.30;;
33814;SDS011;20121;51.910;8.406;2023-06-19T03:44:41;4.80;;;3.10;;
33814;SDS011;20121;51.910;8.406;2023-06-19T03:47:06;4.30;;;3.90;;
33814;SDS011;20121;51.910;8.406;2023-06-19T03:49:32;3.53;;;3.03;;
33814;SDS011;20121;51.910;8.406;2023-06-19T03:51:57;4.80;;;3.57;;
33814;SDS011;20121;51.910;8.406;2023-06-19T03:54:23;4.20;;;3.00;;
33814;SDS011;20121;51.910;8.406;2023-06-19T03:56:50;5.22;;;3.28;;
33814;SDS011;20121;51.910;8.406;2023-06-19T03:59:16;4.85;;;3.45;;
33814;SDS011;20121;51.910;8.406;2023-06-19T04:01:41;4.10;;;3.40;;
33814;SDS011;20121;51.910;8.406;2023-06-19T04:04:07;4.80;;;3.43;;
33814;SDS011;20121;51.910;8.406;2023-06-19T04:06:33;4.13;;;3.73;;
33814;SDS011;20121;51.910;8.406;2023-06-19T04:08:59;3.40;;;3.10;;
33814;SDS011;20121;51.910;8.406;2023-06-19T04:11:24;4.80;;;4.07;;
33814;SDS011;20121;51.910;8.406;2023-06-19T04:13:50;6.90;;;3.87;;
33814;SDS011;20121;51.910;8.406;2023-06-19T04:16:15;3.33;;;2.93;;
33814;SDS011;20121;51.910;8.406;2023-06-19T04:18:41;4.50;;;3.23;;
33814;SDS011;20121;51.910;8.406;2023-06-19T04:21:06;3.50;;;3.20;;
33814;SDS011;20121;51.910;8.406;2023-06-19T04:23:32;3.83;;;3.40;;
33814;SDS011;20121;51.910;8.406;2023-06-19T04:25:58;4.40;;;3.17;;
33814;SDS011;20121;51.910;8.406;2023-06-19T04:28:23;4.40;;;3.40;;
33814;SDS011;20121;51.910;8.406;2023-06-19T04:30:51;6.00;;;3.45;;
33814;SDS011;20121;51.910;8.406;2023-06-19T04:33:24;3.63;;;3.33;;
33814;SDS011;20121;51.910;8.406;2023-06-19T04:35:54;4.15;;;3.75;;
33814;SDS011;20121;51.910;8.406;2023-06-19T04:38:20;3.92;;;3.20;;
33814;SDS011;20121;51.910;8.406;2023-06-19T04:40:52;5.75;;;3.53;;
33814;SDS011;20121;51.910;8.406;2023-06-19T04:43:18;4.60;;;3.70;;
33814;SDS011;20121;51.910;8.406;2023-06-19T04:45:43;3.23;;;2.67;;
33814;SDS011;20121;51.910;8.406;2023-06-19T04:48:09;3.88;;;3.05;;
33814;SDS011;20121;51.910;8.406;2023-06-19T04:50:36;2.80;;;2.60;;
33814;SDS011;20121;51.910;8.406;2023-06-19T04:53:02;5.23;;;3.00;;
33814;SDS011;20121;51.910;8.406;2023-06-19T04:55:27;3.57;;;3.10;;
33814;SDS011;20121;51.910;8.406;2023-06-19T04:57:53;4.00;;;3.50;;
33814;SDS011;20121;51.910;8.406;2023-06-19T05:00:19;4.95;;;3.72;;
33814;SDS011;20121;51.910;8.406;2023-06-19T05:02:46;5.05;;;3.83;;
33814;SDS011;20121;51.910;8.406;2023-06-19T05:05:13;5.27;;;3.67;;
33814;SDS011;20121;51.910;8.406;2023-06-19T05:07:39;4.72;;;3.55;;
33814;SDS011;20121;51.910;8.406;2023-06-19T05:10:05;4.35;;;3.35;;
33814;SDS011;20121;51.910;8.406;2023-06-19T05:12:31;3.75;;;3.45;;
33814;SDS011;20121;51.910;8.406;2023-06-19T05:14:57;3.43;;;3.10;;
33814;SDS011;20121;51.910;8.406;2023-06-19T05:17:22;3.77;;;3.47;;
33814;SDS011;20121;51.910;8.406;2023-06-19T05:19:48;5.37;;;4.40;;
33814;SDS011;20121;51.910;8.406;2023-06-19T05:22:14;3.53;;;3.22;;
33814;SDS011;20121;51.910;8.406;2023-06-19T05:24:40;3.27;;;2.97;;
33814;SDS011;20121;51.910;8.406;2023-06-19T05:27:05;4.37;;;3.97;;
33814;SDS011;20121;51.910;8.406;2023-06-19T05:29:31;4.03;;;2.90;;
33814;SDS011;20121;51.910;8.406;2023-06-19T05:31:57;3.63;;;3.33;;
33814;SDS011;20121;51.910;8.406;2023-06-19T05:34:23;5.00;;;3.90;;
33814;SDS011;20121;51.910;8.406;2023-06-19T05:36:48;4.57;;;3.70;;
33814;SDS011;20121;51.910;8.406;2023-06-19T05:39:14;2.93;;;2.63;;
33814;SDS011;20121;51.910;8.406;2023-06-19T05:41:39;3.70;;;3.00;;
33814;SDS011;20121;51.910;8.406;2023-06-19T05:44:05;4.40;;;3.10;;
33814;SDS011;20121;51.910;8.406;2023-06-19T05:46:31;2.70;;;2.50;;
33814;SDS011;20121;51.910;8.406;2023-06-19T05:48:56;2.17;;;2.07;;
33814;SDS011;20121;51.910;8.406;2023-06-19T05:51:22;3.70;;;2.40;;
33814;SDS011;20121;51.910;8.406;2023-06-19T05:53:48;2.30;;;2.10;;
33814;SDS011;20121;51.910;8.406;2023-06-19T05:56:17;2.90;;;2.60;;
33814;SDS011;20121;51.910;8.406;2023-06-19T05:58:43;3.80;;;2.50;;
33814;SDS011;20121;51.910;8.406;2023-06-19T06:01:09;8.25;;;2.58;;
33814;SDS011;20121;51.910;8.406;2023-06-19T06:03:34;2.60;;;2.40;;
33814;SDS011;20121;51.910;8.406;2023-06-19T06:06:01;2.28;;;2.08;;
33814;SDS011;20121;51.910;8.406;2023-06-19T06:08:30;2.00;;;1.83;;
33814;SDS011;20121;51.910;8.406;2023-06-19T06:10:55;2.28;;;1.80;;
33814;SDS011;20121;51.910;8.406;2023-06-19T06:13:21;2.00;;;1.80;;
33814;SDS011;20121;51.910;8.406;2023-06-19T06:15:47;2.03;;;1.92;;
33814;SDS011;20121;51.910;8.406;2023-06-19T06:18:13;3.27;;;2.67;;
33814;SDS011;20121;51.910;8.406;2023-06-19T06:20:38;2.30;;;1.97;;
33814;SDS011;20121;51.910;8.406;2023-06-19T06:23:04;1.73;;;1.63;;
33814;SDS011;20121;51.910;8.406;2023-06-19T06:25:30;1.63;;;1.53;;
33814;SDS011;20121;51.910;8.406;2023-06-19T06:27:55;3.50;;;2.37;;
33814;SDS011;20121;51.910;8.406;2023-06-19T06:30:21;1.80;;;1.50;;
33814;SDS011;20121;51.910;8.406;2023-06-19T06:32:48;1.80;;;1.70;;
33814;SDS011;20121;51.910;8.406;2023-06-19T06:35:14;10.70;;;1.67;;
33814;SDS011;20121;51.910;8.406;2023-06-19T06:37:40;3.58;;;1.70;;
33814;SDS011;20121;51.910;8.406;2023-06-19T06:40:06;2.10;;;1.73;;
33814;SDS011;20121;51.910;8.406;2023-06-19T06:42:36;1.92;;;1.80;;
33814;SDS011;20121;51.910;8.406;2023-06-19T06:45:02;2.03;;;1.88;;
33814;SDS011;20121;51.910;8.406;2023-06-19T06:47:30;1.60;;;1.30;;
33814;SDS011;20121;51.910;8.406;2023-06-19T06:49:55;2.90;;;1.70;;
33814;SDS011;20121;51.910;8.406;2023-06-19T06:52:21;1.80;;;1.57;;
33814;SDS011;20121;51.910;8.406;2023-06-19T06:54:47;1.47;;;1.30;;
33814;SDS011;20121;51.910;8.406;2023-06-19T06:57:12;1.87;;;1.73;;
33814;SDS011;20121;51.910;8.406;2023-06-19T06:59:38;4.03;;;1.43;;
33814;SDS011;20121;51.910;8.406;2023-06-19T07:02:03;2.53;;;1.50;;
33814;SDS011;20121;51.910;8.406;2023-06-19T07:04:29;6.43;;;1.80;;
33814;SDS011;20121;51.910;8.406;2023-06-19T07:06:55;11.10;;;1.90;;
33814;SDS011;20121;51.910;8.406;2023-06-19T07:09:20;4.17;;;1.63;;
33814;SDS011;20121;51.910;8.406;2023-06-19T07:11:46;2.20;;;1.80;;
33814;SDS011;20121;51.910;8.406;2023-06-19T07:14:12;3.10;;;1.57;;
33814;SDS011;20121;51.910;8.406;2023-06-19T07:16:37;1.70;;;1.47;;
33814;SDS011;20121;51.910;8.406;2023-06-19T07:19:03;1.47;;;1.37;;
33814;SDS011;20121;51.910;8.406;2023-06-19T07:21:30;1.93;;;1.70;;
33814;SDS011;20121;51.910;8.406;2023-06-19T07:23:56;2.25;;;1.35;;
33814;SDS011;20121;51.910;8.406;2023-06-19T07:26:22;1.40;;;1.30;;
33814;SDS011;20121;51.910;8.406;2023-06-19T07:28:48;1.90;;;1.20;;
33814;SDS011;20121;51.910;8.406;2023-06-19T07:31:13;1.03;;;0.93;;
33814;SDS011;20121;51.910;8.406;2023-06-19T07:33:39;1.50;;;1.40;;
33814;SDS011;20121;51.910;8.406;2023-06-19T07:36:05;1.33;;;1.10;;
33814;SDS011;20121;51.910;8.406;2023-06-19T07:38:31;1.50;;;1.40;;
33814;SDS011;20121;51.910;8.406;2023-06-19T07:40:57;4.17;;;2.00;;
33814;SDS011;20121;51.910;8.406;2023-06-19T07:43:23;1.87;;;1.67;;
33814;SDS011;20121;51.910;8.406;2023-06-19T07:45:48;1.60;;;1.40;;
33814;SDS011;20121;51.910;8.406;2023-06-19T07:48:14;1.90;;;1.50;;
33814;SDS011;20121;51.910;8.406;2023-06-19T07:50:40;1.77;;;1.67;;
33814;SDS011;20121;51.910;8.406;2023-06-19T07:53:06;1.40;;;1.30;;
33814;SDS011;20121;51.910;8.406;2023-06-19T07:55:32;2.37;;;2.00;;
33814;SDS011;20121;51.910;8.406;2023-06-19T07:58:00;3.28;;;1.55;;
33814;SDS011;20121;51.910;8.406;2023-06-19T08:00:26;2.20;;;2.00;;
33814;SDS011;20121;51.910;8.406;2023-06-19T08:02:51;1.67;;;1.57;;
33814;SDS011;20121;51.910;8.406;2023-06-19T08:05:17;1.63;;;1.53;;
33814;SDS011;20121;51.910;8.406;2023-06-19T08:07:42;1.80;;;1.53;;
33814;SDS011;20121;51.910;8.406;2023-06-19T08:10:08;1.90;;;1.50;;
33814;SDS011;20121;51.910;8.406;2023-06-19T08:12:34;2.03;;;1.60;;
33814;SDS011;20121;51.910;8.406;2023-06-19T08:15:00;1.93;;;1.70;;
33814;SDS011;20121;51.910;8.406;2023-06-19T08:17:25;1.50;;;1.37;;
33814;SDS011;20121;51.910;8.406;2023-06-19T08:19:51;2.57;;;1.87;;
33814;SDS011;20121;51.910;8.406;2023-06-19T08:22:16;2.27;;;1.93;;
33814;SDS011;20121;51.910;8.406;2023-06-19T08:24:42;2.13;;;1.90;;
33814;SDS011;20121;51.910;8.406;2023-06-19T08:27:08;1.90;;;1.80;;
33814;SDS011;20121;51.910;8.406;2023-06-19T08:29:33;1.93;;;1.70;;
33814;SDS011;20121;51.910;8.406;2023-06-19T08:31:59;1.93;;;1.73;;
33814;SDS011;20121;51.910;8.406;2023-06-19T08:34:25;2.67;;;1.83;;
33814;SDS011;20121;51.910;8.406;2023-06-19T08:36:51;2.73;;;2.13;;
33814;SDS011;20121;51.910;8.406;2023-06-19T08:39:16;1.70;;;1.60;;
33814;SDS011;20121;51.910;8.406;2023-06-19T08:41:42;1.93;;;1.83;;
33814;SDS011;20121;51.910;8.406;2023-06-19T08:44:08;3.13;;;2.27;;
33814;SDS011;20121;51.910;8.406;2023-06-19T08:46:34;1.60;;;1.50;;
33814;SDS011;20121;51.910;8.406;2023-06-19T08:49:02;4.28;;;2.30;;
33814;SDS011;20121;51.910;8.406;2023-06-19T08:51:28;2.40;;;2.20;;
33814;SDS011;20121;51.910;8.406;2023-06-19T08:54:02;2.83;;;2.55;;
33814;SDS011;20121;51.910;8.406;2023-06-19T08:56:29;2.40;;;2.00;;
33814;SDS011;20121;51.910;8.406;2023-06-19T08:59:07;1.90;;;1.80;;
33814;SDS011;20121;51.910;8.406;2023-06-19T09:01:37;2.53;;;2.33;;
33814;SDS011;20121;51.910;8.406;2023-06-19T09:04:13;3.05;;;2.05;;
33814;SDS011;20121;51.910;8.406;2023-06-19T09:07:12;2.33;;;2.22;;
33814;SDS011;20121;51.910;8.406;2023-06-19T09:09:32;2.58;;;2.38;;
33814;SDS011;20121;51.910;8.406;2023-06-19T09:12:01;2.50;;;2.30;;
33814;SDS011;20121;51.910;8.406;2023-06-19T09:17:01;2.75;;;2.50;;
33814;SDS011;20121;51.910;8.406;2023-06-19T09:19:32;3.55;;;3.22;;
33814;SDS011;20121;51.910;8.406;2023-06-19T09:22:02;2.72;;;2.53;;
33814;SDS011;20121;51.910;8.406;2023-06-19T09:24:33;2.97;;;2.78;;
33814;SDS011;20121;51.910;8.406;2023-06-19T09:27:14;2.60;;;2.40;;
33814;SDS011;20121;51.910;8.406;2023-06-19T09:29:47;2.70;;;2.50;;
33814;SDS011;20121;51.910;8.406;2023-06-19T09:32:15;3.60;;;3.08;;
33814;SDS011;20121;51.910;8.406;2023-06-19T09:34:45;2.83;;;2.63;;
33814;SDS011;20121;51.910;8.406;2023-06-19T09:37:11;2.75;;;2.55;;
33814;SDS011;20121;51.910;8.406;2023-06-19T09:39:37;2.70;;;2.50;;
33814;SDS011;20121;51.910;8.406;2023-06-19T09:42:04;2.60;;;2.40;;
33814;SDS011;20121;51.910;8.406;2023-06-19T09:44:32;2.42;;;2.22;;
33814;SDS011;20121;51.910;8.406;2023-06-19T09:47:04;2.10;;;2.00;;
33814;SDS011;20121;51.910;8.406;2023-06-19T09:49:42;2.10;;;1.90;;
33814;SDS011;20121;51.910;8.406;2023-06-19T09:52:12;5.07;;;2.47;;
33814;SDS011;20121;51.910;8.406;2023-06-19T09:54:37;2.67;;;2.47;;
33814;SDS011;20121;51.910;8.406;2023-06-19T09:57:04;2.47;;;2.38;;
33814;SDS011;20121;51.910;8.406;2023-06-19T09:59:31;2.00;;;1.90;;
33814;SDS011;20121;51.910;8.406;2023-06-19T10:01:57;1.88;;;1.77;;
33814;SDS011;20121;51.910;8.406;2023-06-19T10:04:23;2.38;;;2.17;;
33814;SDS011;20121;51.910;8.406;2023-06-19T10:06:49;2.57;;;2.37;;
33814;SDS011;20121;51.910;8.406;2023-06-19T10:09:15;2.00;;;1.80;;
33814;SDS011;20121;51.910;8.406;2023-06-19T10:11:45;1.85;;;1.75;;
33814;SDS011;20121;51.910;8.406;2023-06-19T10:14:11;2.95;;;2.38;;
33814;SDS011;20121;51.910;8.406;2023-06-19T10:16:38;2.88;;;2.63;;
33814;SDS011;20121;51.910;8.406;2023-06-19T10:19:15;2.85;;;2.20;;
33814;SDS011;20121;51.910;8.406;2023-06-19T10:21:45;1.80;;;1.70;;
33814;SDS011;20121;51.910;8.406;2023-06-19T10:24:16;3.05;;;2.63;;
33814;SDS011;20121;51.910;8.406;2023-06-19T10:26:58;3.95;;;2.15;;
33814;SDS011;20121;51.910;8.406;2023-06-19T10:29:25;2.63;;;2.42;;
33814;SDS011;20121;51.910;8.406;2023-06-19T10:31:52;5.32;;;2.85;;
33814;SDS011;20121;51.910;8.406;2023-06-19T10:34:18;2.65;;;2.15;;
33814;SDS011;20121;51.910;8.406;2023-06-19T10:36:44;2.60;;;2.40;;
33814;SDS011;20121;51.910;8.406;2023-06-19T10:39:09;2.87;;;2.57;;
33814;SDS011;20121;51.910;8.406;2023-06-19T10:41:35;1.97;;;1.77;;
33814;SDS011;20121;51.910;8.406;2023-06-19T10:44:05;4.25;;;2.30;;
33814;SDS011;20121;51.910;8.406;2023-06-19T10:46:36;2.78;;;2.58;;
33814;SDS011;20121;51.910;8.406;2023-06-19T10:49:02;2.35;;;2.15;;
33814;SDS011;20121;51.910;8.406;2023-06-19T10:51:30;3.47;;;2.95;;
33814;SDS011;20121;51.910;8.406;2023-06-19T10:53:56;2.63;;;2.42;;
33814;SDS011;20121;51.910;8.406;2023-06-19T10:56:22;3.70;;;3.40;;
33814;SDS011;20121;51.910;8.406;2023-06-19T10:58:56;4.57;;;2.88;;
33814;SDS011;20121;51.910;8.406;2023-06-19T11:01:32;2.67;;;2.40;;
33814;SDS011;20121;51.910;8.406;2023-06-19T11:04:01;2.15;;;2.03;;
33814;SDS011;20121;51.910;8.406;2023-06-19T11:06:31;2.35;;;2.15;;
33814;SDS011;20121;51.910;8.406;2023-06-19T11:08:57;2.78;;;2.58;;
33814;SDS011;20121;51.910;8.406;2023-06-19T11:11:34;2.43;;;2.20;;
33814;SDS011;20121;51.910;8.406;2023-06-19T11:14:03;3.95;;;2.50;;
33814;SDS011;20121;51.910;8.406;2023-06-19T11:16:29;1.90;;;1.80;;
33814;SDS011;20121;51.910;8.406;2023-06-19T11:18:56;1.63;;;1.53;;
33814;SDS011;20121;51.910;8.406;2023-06-19T11:21:28;1.83;;;1.73;;
33814;SDS011;20121;51.910;8.406;2023-06-19T11:24:01;3.05;;;1.92;;
33814;SDS011;20121;51.910;8.406;2023-06-19T11:26:27;1.87;;;1.70;;
33814;SDS011;20121;51.910;8.406;2023-06-19T11:28:53;2.23;;;2.03;;
33814;SDS011;20121;51.910;8.406;2023-06-19T11:31:24;2.97;;;1.20;;
33814;SDS011;20121;51.910;8.406;2023-06-19T11:33:57;1.67;;;1.58;;
33814;SDS011;20121;51.910;8.406;2023-06-19T11:36:24;1.58;;;1.48;;
33814;SDS011;20121;51.910;8.406;2023-06-19T11:38:50;1.70;;;1.60;;
33814;SDS011;20121;51.910;8.406;2023-06-19T11:41:24;1.52;;;1.42;;
33814;SDS011;20121;51.910;8.406;2023-06-19T11:44:03;1.77;;;1.48;;
33814;SDS011;20121;51.910;8.406;2023-06-19T11:46:31;2.10;;;1.95;;
33814;SDS011;20121;51.910;8.406;2023-06-19T11:49:07;3.15;;;2.50;;
33814;SDS011;20121;51.910;8.406;2023-06-19T11:51:41;2.08;;;1.98;;
33814;SDS011;20121;51.910;8.406;2023-06-19T11:54:08;2.83;;;2.30;;
33814;SDS011;20121;51.910;8.406;2023-06-19T11:56:35;3.38;;;2.00;;
33814;SDS011;20121;51.910;8.406;2023-06-19T11:59:01;1.35;;;1.20;;
33814;SDS011;20121;51.910;8.406;2023-06-19T12:01:28;2.58;;;2.38;;
33814;SDS011;20121;51.910;8.406;2023-06-19T12:03:55;1.90;;;1.80;;
33814;SDS011;20121;51.910;8.406;2023-06-19T12:06:20;2.40;;;1.83;;
33814;SDS011;20121;51.910;8.406;2023-06-19T12:08:46;1.80;;;1.57;;
33814;SDS011;20121;51.910;8.406;2023-06-19T12:11:12;1.70;;;1.47;;
33814;SDS011;20121;51.910;8.406;2023-06-19T12:13:39;1.60;;;1.33;;
33814;SDS011;20121;51.910;8.406;2023-06-19T12:16:06;1.90;;;1.80;;
33814;SDS011;20121;51.910;8.406;2023-06-19T12:18:32;1.80;;;1.70;;
33814;SDS011;20121;51.910;8.406;2023-06-19T12:20:58;2.00;;;1.90;;
33814;SDS011;20121;51.910;8.406;2023-06-19T12:23:23;1.67;;;1.57;;
33814;SDS011;20121;51.910;8.406;2023-06-19T12:25:49;1.60;;;1.50;;
33814;SDS011;20121;51.910;8.406;2023-06-19T12:28:14;2.30;;;2.10;;
33814;SDS011;20121;51.910;8.406;2023-06-19T12:30:43;1.50;;;1.40;;
33814;SDS011;20121;51.910;8.406;2023-06-19T12:33:09;1.70;;;1.60;;
33814;SDS011;20121;51.910;8.406;2023-06-19T12:35:38;1.73;;;1.57;;
33814;SDS011;20121;51.910;8.406;2023-06-19T12:38:04;2.33;;;2.00;;
33814;SDS011;20121;51.910;8.406;2023-06-19T12:40:31;1.87;;;1.57;;
33814;SDS011;20121;51.910;8.406;2023-06-19T12:42:57;2.27;;;2.13;;
33814;SDS011;20121;51.910;8.406;2023-06-19T12:45:22;1.60;;;1.50;;
33814;SDS011;20121;51.910;8.406;2023-06-19T12:47:48;1.70;;;1.60;;
33814;SDS011;20121;51.910;8.406;2023-06-19T12:50:14;2.10;;;1.57;;
33814;SDS011;20121;51.910;8.406;2023-06-19T12:52:39;2.03;;;1.83;;
33814;SDS011;20121;51.910;8.406;2023-06-19T12:55:05;2.00;;;1.90;;
33814;SDS011;20121;51.910;8.406;2023-06-19T12:57:31;4.00;;;2.00;;
33814;SDS011;20121;51.910;8.406;2023-06-19T12:59:56;4.73;;;1.90;;
33814;SDS011;20121;51.910;8.406;2023-06-19T13:02:22;1.40;;;1.30;;
33814;SDS011;20121;51.910;8.406;2023-06-19T13:04:47;1.07;;;0.97;;
33814;SDS011;20121;51.910;8.406;2023-06-19T13:07:13;2.23;;;1.50;;
33814;SDS011;20121;51.910;8.406;2023-06-19T13:09:39;1.70;;;1.60;;
33814;SDS011;20121;51.910;8.406;2023-06-19T13:12:04;1.70;;;1.60;;
33814;SDS011;20121;51.910;8.406;2023-06-19T13:14:30;1.87;;;1.77;;
33814;SDS011;20121;51.910;8.406;2023-06-19T13:16:59;3.30;;;1.70;;
33814;SDS011;20121;51.910;8.406;2023-06-19T13:19:25;1.83;;;1.60;;
33814;SDS011;20121;51.910;8.406;2023-06-19T13:21:51;2.07;;;1.83;;
33814;SDS011;20121;51.910;8.406;2023-06-19T13:24:17;1.77;;;1.67;;
33814;SDS011;20121;51.910;8.406;2023-06-19T13:26:43;2.50;;;1.40;;
33814;SDS011;20121;51.910;8.406;2023-06-19T13:29:09;2.00;;;1.60;;
33814;SDS011;20121;51.910;8.406;2023-06-19T13:31:35;2.73;;;1.83;;
33814;SDS011;20121;51.910;8.406;2023-06-19T13:34:00;2.13;;;1.93;;
33814;SDS011;20121;51.910;8.406;2023-06-19T13:36:26;2.10;;;2.00;;
33814;SDS011;20121;51.910;8.406;2023-06-19T13:38:52;3.30;;;2.90;;
33814;SDS011;20121;51.910;8.406;2023-06-19T13:41:18;2.40;;;2.20;;
33814;SDS011;20121;51.910;8.406;2023-06-19T13:43:43;2.80;;;2.60;;
33814;SDS011;20121;51.910;8.406;2023-06-19T13:46:10;2.70;;;2.30;;
33814;SDS011;20121;51.910;8.406;2023-06-19T13:48:37;2.83;;;2.63;;
33814;SDS011;20121;51.910;8.406;2023-06-19T13:51:02;2.77;;;2.57;;
33814;SDS011;20121;51.910;8.406;2023-06-19T13:53:28;5.50;;;2.60;;
33814;SDS011;20121;51.910;8.406;2023-06-19T13:55:55;2.77;;;2.57;;
33814;SDS011;20121;51.910;8.406;2023-06-19T13:58:20;2.57;;;2.40;;
33814;SDS011;20121;51.910;8.406;2023-06-19T14:00:46;2.40;;;2.23;;
33814;SDS011;20121;51.910;8.406;2023-06-19T14:03:12;2.10;;;2.00;;
33814;SDS011;20121;51.910;8.406;2023-06-19T14:05:38;2.17;;;1.97;;
33814;SDS011;20121;51.910;8.406;2023-06-19T14:08:04;2.47;;;2.23;;
33814;SDS011;20121;51.910;8.406;2023-06-19T14:10:30;2.40;;;2.23;;
33814;SDS011;20121;51.910;8.406;2023-06-19T14:12:55;3.10;;;2.57;;
33814;SDS011;20121;51.910;8.406;2023-06-19T14:15:21;2.20;;;2.10;;
33814;SDS011;20121;51.910;8.406;2023-06-19T14:17:47;4.93;;;2.83;;
33814;SDS011;20121;51.910;8.406;2023-06-19T14:20:13;3.30;;;2.60;;
33814;SDS011;20121;51.910;8.406;2023-06-19T14:22:38;3.30;;;2.40;;
33814;SDS011;20121;51.910;8.406;2023-06-19T14:25:04;2.70;;;2.43;;
33814;SDS011;20121;51.910;8.406;2023-06-19T14:27:30;2.57;;;2.37;;
33814;SDS011;20121;51.910;8.406;2023-06-19T14:29:55;2.97;;;2.77;;
33814;SDS011;20121;51.910;8.406;2023-06-19T14:32:22;3.10;;;2.80;;
33814;SDS011;20121;51.910;8.406;2023-06-19T14:34:50;5.50;;;2.63;;
33814;SDS011;20121;51.910;8.406;2023-06-19T14:37:16;3.00;;;2.70;;
33814;SDS011;20121;51.910;8.406;2023-06-19T14:39:42;2.70;;;2.50;;
33814;SDS011;20121;51.910;8.406;2023-06-19T14:42:08;3.03;;;2.80;;
33814;SDS011;20121;51.910;8.406;2023-06-19T14:44:35;3.13;;;2.83;;
33814;SDS011;20121;51.910;8.406;2023-06-19T14:47:01;3.80;;;2.83;;
33814;SDS011;20121;51.910;8.406;2023-06-19T14:49:27;3.17;;;2.87;;